Time;durP1;ratioP1;P1;durP2;ratioP2;P2;SDS_P1;SDS_P2;PMS_P1;PMS_P2;Temp;Humidity;BMP_temperature;BMP_pressure;BME280_temperature;BME280_humidity;BME280_pressure;Samples;Min_cycle;Max_cycle;Signal;HPM_P1;HPM_P2
2022/10/11 00:03:47;;;;;;;4.20;2.40;;;;;;;12.33;76.01;99043.16;214797;1294;24267;-73
2022/10/11 00:08:49;;;;;;;4.00;2.50;;;;;;;12.29;76.28;99042.38;214719;1309;25449;-73
2022/10/11 00:13:51;;;;;;;4.00;2.50;;;;;;;12.26;76.13;99046.78;214762;1280;22544;-73
2022/10/11 00:18:52;;;;;;;3.50;2.70;;;;;;;12.25;75.97;99042.27;214682;1288;22475;-72
2022/10/11 00:23:54;;;;;;;4.40;2.30;;;;;;;12.24;75.80;99047.13;214905;1288;22510;-73
2022/10/11 00:28:56;;;;;;;3.90;2.70;;;;;;;12.20;75.90;99044.66;214893;1309;22465;-72
2022/10/11 00:33:58;;;;;;;3.70;2.40;;;;;;;12.13;75.79;99043.04;214797;1288;22584;-73
2022/10/11 00:39:00;;;;;;;3.80;2.60;;;;;;;12.07;75.60;99042.95;214682;1309;23381;-73
2022/10/11 00:44:21;;;;;;;4.40;2.20;;;;;;;12.04;75.60;99043.65;214621;1280;25294;-73
2022/10/11 00:49:38;;;;;;;4.80;2.50;;;;;;;11.99;75.68;99041.99;214747;1309;24250;-73
2022/10/11 00:54:44;;;;;;;2.30;2.10;;;;;;;11.95;75.50;99038.52;214736;1280;22627;-73
2022/10/11 00:59:52;;;;;;;2.60;2.10;;;;;;;11.93;75.77;99038.91;214740;1309;22487;-73
2022/10/11 01:04:54;;;;;;;2.60;2.10;;;;;;;11.91;75.71;99040.55;214653;1283;22672;-73
2022/10/11 01:10:16;;;;;;;4.10;2.30;;;;;;;11.89;75.67;99042.08;214574;1288;22461;-73
2022/10/11 01:15:37;;;;;;;3.50;2.10;;;;;;;11.87;75.74;99045.05;214680;1286;25301;-72
2022/10/11 01:20:38;;;;;;;4.70;2.10;;;;;;;11.83;75.74;99042.68;214906;1309;22495;-73
2022/10/11 01:25:55;;;;;;;3.10;2.00;;;;;;;11.83;75.84;99046.56;214911;1280;22467;-73
2022/10/11 01:31:07;;;;;;;6.10;2.50;;;;;;;11.81;75.88;99048.71;214664;1309;22478;-72
2022/10/11 01:36:44;;;;;;;4.10;1.90;;;;;;;11.79;75.68;99047.67;214685;1287;22480;-72
2022/10/11 01:41:51;;;;;;;4.70;2.50;;;;;;;11.77;75.69;99043.14;214732;1300;22721;-73
2022/10/11 01:46:53;;;;;;;3.70;2.30;;;;;;;11.75;75.77;99045.77;214727;1281;22483;-73
2022/10/11 01:52:02;;;;;;;6.00;2.20;;;;;;;11.72;76.07;99048.96;214851;1309;26589;-74
2022/10/11 01:57:22;;;;;;;3.10;2.40;;;;;;;11.70;75.91;99050.29;214738;1281;24225;-73
2022/10/11 02:02:23;;;;;;;2.50;2.10;;;;;;;11.69;76.12;99050.02;214941;1309;24254;-74
2022/10/11 02:07:48;;;;;;;7.10;2.20;;;;;;;11.68;76.11;99052.27;214620;1288;176866;-73
2022/10/11 02:13:02;;;;;;;7.20;2.50;;;;;;;11.65;76.16;99050.33;214728;1281;22508;-74
2022/10/11 02:18:12;;;;;;;4.40;2.20;;;;;;;11.63;76.26;99055.57;214666;1309;24284;-73
2022/10/11 02:23:19;;;;;;;5.70;2.30;;;;;;;11.60;76.38;99054.46;214921;1288;22467;-73
2022/10/11 02:28:27;;;;;;;2.20;1.90;;;;;;;11.57;76.41;99053.77;214752;1288;25219;-73
2022/10/11 02:33:39;;;;;;;4.30;2.00;;;;;;;11.54;76.49;99054.59;214891;1283;25429;-73
2022/10/11 02:38:49;;;;;;;4.10;2.20;;;;;;;11.47;76.73;99055.66;214835;1309;25294;-73
2022/10/11 02:44:02;;;;;;;3.90;2.40;;;;;;;11.40;76.81;99057.35;214947;1287;22656;-73
2022/10/11 02:49:06;;;;;;;5.40;2.50;;;;;;;11.34;76.99;99057.64;214695;1309;22475;-73
2022/10/11 02:54:08;;;;;;;3.50;2.40;;;;;;;11.26;77.17;99061.92;215034;1288;23092;-73
2022/10/11 02:59:09;;;;;;;7.00;2.40;;;;;;;11.22;77.19;99068.48;214741;1293;24073;-72
2022/10/11 03:04:11;;;;;;;5.00;2.50;;;;;;;11.20;77.51;99070.45;214714;1280;24736;-72
2022/10/11 03:09:13;;;;;;;3.30;2.50;;;;;;;11.17;77.53;99072.91;214621;1309;25462;-72
2022/10/11 03:14:14;;;;;;;7.90;2.50;;;;;;;11.18;77.64;99079.76;214783;1280;22682;-72
2022/10/11 03:19:16;;;;;;;3.10;2.00;;;;;;;11.17;77.82;99086.30;214536;1304;22590;-72
2022/10/11 03:24:20;;;;;;;3.70;2.60;;;;;;;11.18;78.04;99095.30;214748;1284;22481;-73
2022/10/11 03:29:21;;;;;;;4.00;2.30;;;;;;;11.18;78.10;99096.80;214631;1303;22727;-73
2022/10/11 03:34:23;;;;;;;4.40;2.20;;;;;;;11.19;78.02;99095.23;214711;1287;22476;-73
2022/10/11 03:39:25;;;;;;;5.80;2.50;;;;;;;11.20;78.39;99101.34;214814;1309;24500;-73
2022/10/11 03:44:27;;;;;;;5.20;2.30;;;;;;;11.22;78.64;99107.91;214793;1284;24455;-72
2022/10/11 03:49:29;;;;;;;3.70;2.30;;;;;;;11.24;78.60;99116.33;214647;1294;24241;-73
2022/10/11 03:54:30;;;;;;;6.50;3.10;;;;;;;11.26;78.73;99117.63;214713;1287;22470;-73
2022/10/11 03:59:32;;;;;;;4.80;2.70;;;;;;;11.29;78.64;99113.84;214655;1306;22514;-72
2022/10/11 04:04:34;;;;;;;3.70;2.10;;;;;;;11.30;78.94;99107.89;214625;1284;22576;-73
2022/10/11 04:09:35;;;;;;;4.00;2.60;;;;;;;11.29;79.05;99112.36;214571;1288;22472;-72
2022/10/11 04:14:37;;;;;;;3.50;2.30;;;;;;;11.26;79.36;99111.19;214646;1291;24382;-73
2022/10/11 04:19:39;;;;;;;6.00;2.50;;;;;;;11.21;80.13;99113.61;214652;1294;24401;-73
2022/10/11 04:24:41;;;;;;;2.80;2.50;;;;;;;11.08;80.84;99118.30;214796;1281;23076;-73
2022/10/11 04:29:42;;;;;;;3.70;2.60;;;;;;;10.95;81.68;99119.64;214746;1305;22484;-74
2022/10/11 04:34:44;;;;;;;4.40;2.60;;;;;;;10.83;82.23;99113.05;214949;1283;24256;-73
2022/10/11 04:39:46;;;;;;;3.50;2.40;;;;;;;10.71;83.06;99117.45;214538;1309;25441;-72
2022/10/11 04:44:47;;;;;;;4.70;2.80;;;;;;;10.59;83.84;99122.41;214698;1284;22474;-73
2022/10/11 04:49:49;;;;;;;7.20;3.40;;;;;;;10.48;84.80;99123.62;214465;1310;25300;-73
2022/10/11 04:54:51;;;;;;;6.00;3.20;;;;;;;10.42;85.41;99132.23;214652;1284;22599;-74
2022/10/11 04:59:53;;;;;;;4.50;3.30;;;;;;;10.39;86.05;99139.73;214679;1309;22531;-73
2022/10/11 05:04:55;;;;;;;5.70;3.40;;;;;;;10.37;86.38;99140.23;214680;1285;23332;-71
2022/10/11 05:09:56;;;;;;;6.90;3.80;;;;;;;10.35;86.95;99147.16;214783;1302;22481;-73
2022/10/11 05:14:58;;;;;;;5.30;3.30;;;;;;;10.32;87.11;99161.24;214633;1285;25274;-73
2022/10/11 05:20:00;;;;;;;3.50;2.80;;;;;;;10.32;87.81;99169.23;214503;1301;22569;-72
2022/10/11 05:25:02;;;;;;;7.10;3.70;;;;;;;10.32;87.67;99174.89;214708;1281;25349;-75
2022/10/11 05:30:04;;;;;;;5.80;4.50;;;;;;;10.33;87.90;99185.59;214736;1309;25328;-73
2022/10/11 05:35:06;;;;;;;8.80;4.00;;;;;;;10.36;88.10;99194.30;214478;1280;22600;-73
2022/10/11 05:40:09;;;;;;;4.80;3.50;;;;;;;10.40;88.24;99206.97;214633;1309;22528;-73
2022/10/11 05:45:11;;;;;;;6.60;4.80;;;;;;;10.43;88.34;99202.49;214745;1287;22491;-74
2022/10/11 05:50:13;;;;;;;7.90;4.50;;;;;;;10.49;88.41;99214.48;215044;1278;24323;-72
2022/10/11 05:55:15;;;;;;;5.90;4.10;;;;;;;10.55;88.44;99217.38;215093;1284;24228;-73
2022/10/11 06:00:16;;;;;;;7.00;4.30;;;;;;;10.62;88.43;99222.96;215136;1280;22459;-73
2022/10/11 06:05:18;;;;;;;7.10;4.90;;;;;;;10.71;88.54;99226.66;215063;1280;22557;-72
2022/10/11 06:10:20;;;;;;;7.70;4.80;;;;;;;10.81;88.42;99233.14;215411;1284;24324;-73
2022/10/11 06:15:22;;;;;;;10.60;5.50;;;;;;;10.88;88.47;99242.90;215201;1280;24299;-73
2022/10/11 06:20:25;;;;;;;7.80;4.80;;;;;;;10.94;88.56;99247.63;214902;1281;25303;-74
2022/10/11 06:25:27;;;;;;;5.40;4.10;;;;;;;11.01;88.68;99256.59;214938;1280;22458;-72
2022/10/11 06:30:29;;;;;;;6.30;4.30;;;;;;;11.08;88.71;99256.59;214962;1280;22618;-72
2022/10/11 06:35:31;;;;;;;8.30;5.10;;;;;;;11.17;88.87;99261.58;215083;1288;25275;-72
2022/10/11 06:40:32;;;;;;;9.00;5.30;;;;;;;11.30;89.10;99271.11;214844;1283;22713;-72
2022/10/11 06:45:34;;;;;;;9.40;5.00;;;;;;;11.41;89.07;99276.34;214922;1285;25325;-73
2022/10/11 06:50:37;;;;;;;6.40;4.30;;;;;;;11.55;89.06;99291.40;214828;1280;22563;-74
2022/10/11 06:56:08;;;;;;;7.10;5.10;;;;;;;11.67;89.08;99294.02;214853;1284;22468;-74
2022/10/11 07:01:15;;;;;;;9.60;5.50;;;;;;;11.75;88.88;99300.94;214596;1302;25161;-74
2022/10/11 07:06:20;;;;;;;7.30;5.30;;;;;;;11.91;89.06;99308.19;214837;1280;22480;-73
2022/10/11 07:11:25;;;;;;;9.30;5.40;;;;;;;12.12;89.17;99317.57;214847;1288;22749;-73
2022/10/11 07:16:27;;;;;;;9.90;5.70;;;;;;;12.37;88.90;99319.88;214957;1283;22587;-73
2022/10/11 07:21:30;;;;;;;7.20;5.10;;;;;;;12.61;88.81;99331.02;214831;1309;22490;-72
2022/10/11 07:26:32;;;;;;;10.20;5.80;;;;;;;12.84;88.65;99330.25;215101;1281;23858;-71
2022/10/11 07:31:41;;;;;;;11.20;5.70;;;;;;;13.02;88.32;99340.55;215083;1289;24311;-71
2022/10/11 07:36:43;;;;;;;10.90;6.70;;;;;;;13.16;87.98;99351.23;214979;1284;23365;-72
2022/10/11 07:41:44;;;;;;;10.40;6.20;;;;;;;13.23;87.59;99359.67;214847;1281;22552;-74
2022/10/11 07:46:46;;;;;;;8.90;5.80;;;;;;;13.23;87.33;99364.89;215125;1285;22629;-72
2022/10/11 07:51:48;;;;;;;12.00;7.00;;;;;;;13.17;87.28;99373.84;215441;1285;24892;-73
2022/10/11 07:56:50;;;;;;;7.00;5.90;;;;;;;13.08;87.17;99375.27;215413;1283;22583;-71
2022/10/11 08:01:52;;;;;;;8.40;6.80;;;;;;;13.00;87.20;99383.60;215550;1287;25415;-72
2022/10/11 08:06:54;;;;;;;9.50;6.90;;;;;;;12.95;87.11;99389.27;215544;1284;22491;-73
2022/10/11 08:11:55;;;;;;;10.70;6.40;;;;;;;12.83;86.96;99393.02;215329;1287;22605;-73
2022/10/11 08:16:57;;;;;;;10.80;7.40;;;;;;;12.69;86.99;99395.66;215390;1287;22565;-72
2022/10/11 08:21:59;;;;;;;12.70;6.60;;;;;;;12.59;87.02;99400.72;215143;1288;22672;-69
2022/10/11 08:27:01;;;;;;;11.30;7.70;;;;;;;12.51;87.10;99403.48;215112;1284;25333;-70
2022/10/11 08:32:03;;;;;;;11.50;7.50;;;;;;;12.43;87.24;99410.07;215029;1294;25264;-70
2022/10/11 08:37:04;;;;;;;12.40;7.90;;;;;;;12.41;87.31;99416.65;215157;1283;22476;-72
2022/10/11 08:42:21;;;;;;;16.30;9.10;;;;;;;12.40;87.31;99419.67;214962;1287;22663;-72
2022/10/11 08:47:31;;;;;;;15.00;10.00;;;;;;;12.37;87.26;99422.33;214954;1286;26367;-71
2022/10/11 08:52:36;;;;;;;15.30;10.40;;;;;;;12.36;87.44;99428.30;214770;1291;22479;-71
2022/10/11 08:57:39;;;;;;;14.00;8.50;;;;;;;12.39;87.70;99432.58;215036;1284;22464;-69
2022/10/11 09:02:49;;;;;;;17.10;10.00;;;;;;;12.51;87.69;99426.45;214903;1283;22503;-74
2022/10/11 09:08:46;;;;;;;12.40;8.30;;;;;;;12.65;87.64;99426.29;215207;1288;26431;-69
2022/10/11 09:13:59;;;;;;;14.30;8.10;;;;;;;12.78;87.29;99432.27;215135;1280;22517;-74
2022/10/11 09:19:29;;;;;;;12.50;7.80;;;;;;;12.80;87.12;99434.93;215048;1288;24455;-73
2022/10/11 09:25:10;;;;;;;14.80;8.90;;;;;;;12.81;86.95;99439.91;215113;1284;25275;-74
2022/10/11 09:30:16;;;;;;;9.30;6.90;;;;;;;12.83;87.00;99442.70;214998;1288;22651;-72
2022/10/11 09:35:20;;;;;;;10.50;7.50;;;;;;;12.85;87.03;99442.61;214817;1284;22484;-71
2022/10/11 09:40:43;;;;;;;15.70;8.60;;;;;;;12.82;86.75;99449.70;215103;1287;25568;-73
2022/10/11 09:45:45;;;;;;;8.90;6.60;;;;;;;12.73;86.61;99452.27;215395;1284;22579;-73
2022/10/11 09:50:53;;;;;;;9.70;6.80;;;;;;;12.70;86.67;99450.27;214894;1287;22600;-73
2022/10/11 09:56:02;;;;;;;7.80;6.20;;;;;;;12.78;86.65;99454.00;215087;1291;25422;-73
2022/10/11 10:01:10;;;;;;;9.00;6.40;;;;;;;12.94;86.55;99457.91;215134;1284;22467;-73
2022/10/11 10:06:23;;;;;;;12.30;7.10;;;;;;;13.13;86.46;99460.96;214860;1286;25257;-74
2022/10/11 10:11:35;;;;;;;8.30;5.60;;;;;;;13.30;86.07;99464.92;214962;1288;25373;-73
2022/10/11 10:16:37;;;;;;;7.70;5.70;;;;;;;13.42;85.87;99465.03;214923;1283;24256;-73
2022/10/11 10:21:45;;;;;;;6.30;5.60;;;;;;;13.60;85.74;99468.11;214892;1283;23217;-73
2022/10/11 10:27:19;;;;;;;9.30;7.60;;;;;;;13.70;85.44;99470.77;214937;1284;25449;-74
2022/10/11 10:32:27;;;;;;;10.10;6.70;;;;;;;13.75;84.99;99471.17;215092;1284;22476;-73
2022/10/11 10:37:35;;;;;;;12.30;7.00;;;;;;;13.87;84.81;99473.58;215249;1286;25310;-73
2022/10/11 10:42:36;;;;;;;7.90;5.80;;;;;;;13.97;84.39;99475.48;215119;1291;24445;-73
2022/10/11 10:47:57;;;;;;;8.90;6.40;;;;;;;14.09;84.21;99475.56;214962;1285;22475;-74
2022/10/11 10:53:22;;;;;;;8.20;5.50;;;;;;;14.16;83.80;99474.91;215162;1284;22545;-73
2022/10/11 10:58:51;;;;;;;6.40;5.20;;;;;;;14.39;83.78;99482.55;215056;1290;22471;-72
2022/10/11 11:04:06;;;;;;;8.00;4.30;;;;;;;14.63;83.54;99485.11;215189;1281;22523;-73
2022/10/11 11:09:18;;;;;;;4.40;3.80;;;;;;;14.56;82.09;99484.78;215194;1287;24256;-72
2022/10/11 11:15:01;;;;;;;6.30;3.60;;;;;;;14.40;81.48;99478.81;215227;1284;23157;-73
2022/10/11 11:20:23;;;;;;;7.30;3.20;;;;;;;14.57;81.32;99478.95;214984;1294;24287;-73
2022/10/11 11:25:34;;;;;;;3.30;2.60;;;;;;;14.73;79.98;99473.73;215071;1284;23292;-73
2022/10/11 11:30:44;;;;;;;5.10;3.60;;;;;;;14.90;79.42;99476.16;215188;1280;22600;-73
2022/10/11 11:35:51;;;;;;;4.70;2.70;;;;;;;15.05;79.08;99472.51;215414;1281;23724;-73
2022/10/11 11:40:57;;;;;;;5.60;3.50;;;;;;;15.20;78.79;99472.05;216698;1284;24259;-74
2022/10/11 11:46:08;;;;;;;4.70;3.20;;;;;;;15.29;78.32;99473.04;215187;1288;22531;-74
2022/10/11 11:51:24;;;;;;;6.20;3.00;;;;;;;15.30;78.00;99474.48;215287;1283;24261;-73
2022/10/11 11:57:04;;;;;;;5.20;3.00;;;;;;;15.26;77.41;99476.08;214932;1280;22620;-74
2022/10/11 12:02:26;;;;;;;3.00;1.80;;;;;;;15.10;76.61;99476.84;214812;1279;22647;-74
2022/10/11 12:07:29;;;;;;;3.90;1.90;;;;;;;15.00;74.93;99474.29;214978;1286;22598;-73
2022/10/11 12:12:36;;;;;;;2.50;2.00;;;;;;;15.02;73.74;99471.87;214773;1280;23018;-73
2022/10/11 12:17:54;;;;;;;4.30;2.10;;;;;;;15.04;72.72;99470.85;214734;1288;22509;-74
2022/10/11 12:23:02;;;;;;;4.80;2.20;;;;;;;15.09;72.39;99475.98;214937;1287;24445;-74
2022/10/11 12:28:41;;;;;;;3.70;2.10;;;;;;;15.12;71.74;99468.80;214892;1285;25349;-74
2022/10/11 12:33:44;;;;;;;3.90;1.80;;;;;;;15.16;71.31;99471.85;215028;1286;22490;-74
2022/10/11 12:38:45;;;;;;;7.00;2.00;;;;;;;15.18;70.59;99471.11;214884;1309;23914;-73
2022/10/11 12:43:47;;;;;;;5.10;1.60;;;;;;;15.19;69.78;99469.64;215084;1283;22489;-74
2022/10/11 12:49:04;;;;;;;4.20;1.80;;;;;;;15.18;69.62;99470.58;215057;1283;22491;-73
2022/10/11 12:54:31;;;;;;;3.30;1.50;;;;;;;15.20;69.58;99468.91;215091;1284;24445;-73
2022/10/11 12:59:43;;;;;;;3.80;1.60;;;;;;;15.24;69.79;99467.98;214966;1293;24341;-73
2022/10/11 13:04:45;;;;;;;4.90;2.40;;;;;;;15.20;69.38;99470.55;215068;1280;23192;-73
2022/10/11 13:09:47;;;;;;;1.70;1.30;;;;;;;15.17;68.89;99475.30;214879;1286;24276;-73
2022/10/11 13:15:02;;;;;;;2.70;1.30;;;;;;;15.12;68.19;99473.95;215130;1281;23881;-75
2022/10/11 13:20:22;;;;;;;4.40;2.10;;;;;;;15.06;67.17;99477.50;215022;1280;22498;-73
2022/10/11 13:25:25;;;;;;;;;;;;;;;14.99;66.12;99477.70;215065;1284;22444;-73
2022/10/11 13:30:31;;;;;;;4.30;1.60;;;;;;;14.85;64.38;99480.41;215067;1280;22455;-72
2022/10/11 13:35:35;;;;;;;4.70;1.70;;;;;;;14.76;64.71;99474.69;215283;1286;26462;-73
2022/10/11 13:40:37;;;;;;;4.30;1.40;;;;;;;14.74;65.63;99472.90;215123;1277;22576;-73
2022/10/11 13:45:40;;;;;;;4.30;1.80;;;;;;;14.71;65.38;99475.54;215038;1281;25118;-73
2022/10/11 13:50:49;;;;;;;3.60;1.20;;;;;;;14.69;65.66;99473.58;214957;1281;23214;-73
2022/10/11 13:55:54;;;;;;;6.10;2.10;;;;;;;14.65;65.59;99477.91;214785;1282;22615;-72
2022/10/11 14:00:56;;;;;;;4.70;1.40;;;;;;;14.57;65.28;99480.89;214670;1285;22526;-73
2022/10/11 14:05:59;;;;;;;4.30;1.20;;;;;;;14.48;65.39;99488.22;214532;1280;207636;-73
2022/10/11 14:11:01;;;;;;;4.40;1.20;;;;;;;14.38;65.05;99486.34;214794;1309;25440;-74
2022/10/11 14:16:26;;;;;;;3.40;1.60;;;;;;;14.31;65.27;99492.02;214488;1288;24311;-74
2022/10/11 14:21:59;;;;;;;3.70;1.40;;;;;;;14.24;65.41;99491.16;214539;1288;25383;-73
2022/10/11 14:27:04;;;;;;;2.50;1.50;;;;;;;14.16;65.82;99487.46;214547;1283;23123;-73
2022/10/11 14:32:09;;;;;;;4.50;2.70;;;;;;;14.09;66.28;99490.33;214696;1304;22522;-73
2022/10/11 14:37:14;;;;;;;4.70;2.80;;;;;;;14.02;66.26;99489.14;214733;1288;22494;-71
2022/10/11 14:42:16;;;;;;;5.10;1.60;;;;;;;13.93;66.58;99489.16;214758;1309;23450;-73
2022/10/11 14:47:18;;;;;;;4.60;2.60;;;;;;;13.83;66.78;99490.66;214599;1280;22471;-73
2022/10/11 14:52:19;;;;;;;8.40;3.60;;;;;;;13.72;67.08;99493.08;214523;1309;24472;-74
2022/10/11 14:57:21;;;;;;;3.10;1.70;;;;;;;13.63;67.20;99492.29;214612;1287;25220;-73
2022/10/11 15:02:23;;;;;;;3.50;1.80;;;;;;;13.51;67.15;99493.80;214565;1307;22485;-74
2022/10/11 15:07:24;;;;;;;3.30;1.40;;;;;;;13.39;67.31;99499.52;214685;1287;24065;-73
2022/10/11 15:12:26;;;;;;;3.20;1.10;;;;;;;13.27;67.32;99498.27;214501;1296;24330;-72
2022/10/11 15:17:28;;;;;;;5.00;1.40;;;;;;;13.14;67.53;99498.13;214705;1294;22525;-73
2022/10/11 15:22:30;;;;;;;5.30;1.40;;;;;;;13.00;67.96;99503.21;214584;1281;23246;-73
2022/10/11 15:27:31;;;;;;;4.30;1.30;;;;;;;12.87;68.33;99500.73;214619;1288;25951;-73
2022/10/11 15:32:33;;;;;;;2.80;1.70;;;;;;;12.72;68.83;99507.94;214471;1281;22965;-72
2022/10/11 15:37:35;;;;;;;6.70;2.00;;;;;;;12.57;69.00;99513.18;214746;1288;24258;-73
2022/10/11 15:42:38;;;;;;;3.30;1.60;;;;;;;12.40;69.19;99515.85;214764;1295;22586;-74
2022/10/11 15:47:40;;;;;;;2.70;1.20;;;;;;;12.25;69.35;99519.70;214605;1280;24412;-73
2022/10/11 15:52:41;;;;;;;8.30;4.60;;;;;;;12.07;69.71;99525.83;214639;1294;22614;-74
2022/10/11 15:57:43;;;;;;;5.90;2.10;;;;;;;11.92;69.86;99525.39;214665;1287;24255;-73
2022/10/11 16:02:45;;;;;;;6.30;1.80;;;;;;;11.73;69.77;99530.80;214650;1281;25434;-73
2022/10/11 16:07:47;;;;;;;7.40;2.30;;;;;;;11.53;69.93;99535.74;214670;1294;25228;-74
2022/10/11 16:12:49;;;;;;;5.00;2.10;;;;;;;11.32;70.28;99543.55;214871;1280;22631;-73
2022/10/11 16:17:50;;;;;;;4.10;2.00;;;;;;;11.10;70.70;99551.03;214731;1285;22527;-73
2022/10/11 16:22:53;;;;;;;4.30;2.00;;;;;;;10.87;71.15;99551.51;214783;1281;22429;-73
2022/10/11 16:27:55;;;;;;;6.40;2.60;;;;;;;10.62;71.83;99557.43;214661;1294;22531;-74
2022/10/11 16:32:57;;;;;;;5.10;2.70;;;;;;;10.37;72.19;99560.75;214841;1284;24105;-74
2022/10/11 16:38:00;;;;;;;7.70;3.20;;;;;;;10.17;72.60;99562.05;214635;1309;22567;-73
2022/10/11 16:43:02;;;;;;;7.80;3.20;;;;;;;9.99;72.67;99563.42;215020;1280;22506;-73
2022/10/11 16:48:08;;;;;;;11.30;3.70;;;;;;;9.82;73.01;99566.16;214814;1309;22540;-73
2022/10/11 16:53:10;;;;;;;7.80;3.70;;;;;;;9.66;73.33;99568.91;214661;1288;22475;-73
2022/10/11 16:58:12;;;;;;;18.00;5.10;;;;;;;9.50;73.73;99574.89;214676;1291;24398;-72
2022/10/11 17:03:13;;;;;;;9.50;5.20;;;;;;;9.36;74.13;99572.80;214739;1294;22499;-72
2022/10/11 17:08:15;;;;;;;12.10;5.70;;;;;;;9.22;74.30;99580.20;214773;1309;25268;-72
2022/10/11 17:13:17;;;;;;;18.20;6.70;;;;;;;9.10;74.56;99584.64;214703;1281;22620;-73
2022/10/11 17:18:19;;;;;;;14.60;7.30;;;;;;;9.03;74.81;99585.92;214616;1309;22489;-74
2022/10/11 17:23:20;;;;;;;21.90;8.50;;;;;;;8.95;75.17;99588.55;214824;1280;25560;-73
2022/10/11 17:28:22;;;;;;;17.30;8.10;;;;;;;8.83;75.51;99586.06;214603;1304;23747;-74
2022/10/11 17:33:26;;;;;;;21.20;9.20;;;;;;;8.74;75.75;99592.52;214469;1280;24413;-73
2022/10/11 17:38:27;;;;;;;24.60;13.10;;;;;;;8.65;76.13;99590.37;214772;1309;22591;-73
2022/10/11 17:43:30;;;;;;;22.30;10.60;;;;;;;8.54;76.34;99593.64;214775;1287;25220;-73
2022/10/11 17:48:35;;;;;;;25.70;10.70;;;;;;;8.42;76.65;99591.39;214534;1284;25295;-73
2022/10/11 17:53:37;;;;;;;26.50;11.30;;;;;;;8.31;76.92;99592.89;214901;1284;22536;-74
2022/10/11 17:58:39;;;;;;;22.30;10.40;;;;;;;8.22;77.26;99591.26;214475;1309;22469;-73
2022/10/11 18:03:42;;;;;;;21.20;10.70;;;;;;;8.18;77.46;99591.85;214664;1287;22955;-73
2022/10/11 18:08:43;;;;;;;21.80;10.00;;;;;;;8.12;77.87;99595.15;214462;1294;22535;-73
2022/10/11 18:13:50;;;;;;;27.30;10.30;;;;;;;8.03;78.23;99599.13;214733;1309;26569;-73
2022/10/11 18:18:53;;;;;;;27.70;15.00;;;;;;;7.94;78.63;99599.25;214559;1309;25258;-74
2022/10/11 18:23:58;;;;;;;26.90;11.90;;;;;;;7.81;78.74;99604.23;214790;1287;22565;-74
2022/10/11 18:29:00;;;;;;;24.50;11.30;;;;;;;7.68;79.12;99599.36;214647;1309;22548;-74
2022/10/11 18:34:03;;;;;;;26.50;11.20;;;;;;;7.53;79.38;99592.85;214633;1280;22776;-74
2022/10/11 18:39:08;;;;;;;22.80;10.80;;;;;;;7.40;79.71;99589.91;214577;1293;22550;-73
2022/10/11 18:44:13;;;;;;;18.00;9.30;;;;;;;7.25;79.99;99593.89;214811;1287;22920;-73
2022/10/11 18:49:14;;;;;;;19.60;8.40;;;;;;;7.13;80.44;99600.48;214360;1309;25293;-73
2022/10/11 18:54:17;;;;;;;18.10;7.50;;;;;;;7.01;80.75;99599.94;214601;1288;22490;-73
2022/10/11 18:59:22;;;;;;;14.80;6.70;;;;;;;6.90;80.84;99599.77;214469;1309;24330;-73
2022/10/11 19:04:23;;;;;;;20.40;7.90;;;;;;;6.79;81.39;99604.83;214837;1286;25450;-74
2022/10/11 19:09:27;;;;;;;19.30;9.00;;;;;;;6.68;81.91;99602.48;214800;1294;24256;-73
2022/10/11 19:14:29;;;;;;;15.90;8.40;;;;;;;6.57;82.39;99601.92;214918;1284;25242;-73
2022/10/11 19:19:32;;;;;;;15.70;8.00;;;;;;;6.46;82.30;99605.80;214551;1309;23175;-73
2022/10/11 19:24:34;;;;;;;17.00;7.60;;;;;;;6.38;82.35;99612.11;214699;1281;24614;-73
2022/10/11 19:29:36;;;;;;;17.50;7.80;;;;;;;6.29;82.79;99613.29;214740;1301;22481;-73
2022/10/11 19:34:38;;;;;;;23.70;11.00;;;;;;;6.20;82.74;99614.30;214754;1288;22480;-74
2022/10/11 19:39:40;;;;;;;24.20;11.80;;;;;;;6.12;82.96;99615.27;214737;1309;23082;-73
2022/10/11 19:44:41;;;;;;;40.80;18.80;;;;;;;6.04;83.29;99623.89;214830;1280;24256;-73
2022/10/11 19:49:43;;;;;;;44.70;20.30;;;;;;;5.96;83.70;99624.95;214791;1309;25306;-73
2022/10/11 19:54:45;;;;;;;55.00;25.50;;;;;;;5.89;84.09;99626.55;214805;1287;25339;-74
2022/10/11 19:59:47;;;;;;;54.40;25.90;;;;;;;5.84;84.35;99631.27;214664;1309;23752;-73
2022/10/11 20:04:48;;;;;;;55.20;26.90;;;;;;;5.78;84.53;99628.58;214731;1287;22477;-73
2022/10/11 20:09:53;;;;;;;50.90;25.20;;;;;;;5.73;85.16;99628.75;214770;1309;23209;-73
2022/10/11 20:14:55;;;;;;;37.20;19.00;;;;;;;5.69;85.27;99625.85;214697;1281;23277;-74
2022/10/11 20:19:57;;;;;;;36.00;17.80;;;;;;;5.64;85.63;99628.46;214681;1280;24319;-73
2022/10/11 20:24:58;;;;;;;38.20;19.90;;;;;;;5.59;85.55;99628.45;214793;1287;22473;-74
2022/10/11 20:30:00;;;;;;;38.40;18.60;;;;;;;5.53;85.84;99626.94;214676;1288;22822;-72
2022/10/11 20:35:02;;;;;;;41.20;18.60;;;;;;;5.47;86.19;99629.17;214645;1288;22524;-74
2022/10/11 20:40:05;;;;;;;41.00;21.30;;;;;;;5.44;86.90;99630.21;214822;1308;22490;-73
2022/10/11 20:45:07;;;;;;;47.30;24.90;;;;;;;5.38;86.97;99632.05;214762;1287;24237;-73
2022/10/11 20:50:08;;;;;;;56.80;28.00;;;;;;;5.30;86.86;99633.80;214647;1309;22647;-73
2022/10/11 20:55:10;;;;;;;60.00;28.40;;;;;;;5.24;86.67;99632.49;214769;1287;26924;-72
2022/10/11 21:00:12;;;;;;;57.10;28.30;;;;;;;5.17;86.84;99628.78;214801;1309;22497;-74
2022/10/11 21:05:14;;;;;;;52.80;24.00;;;;;;;5.12;87.39;99630.13;214786;1287;22568;-73
2022/10/11 21:10:16;;;;;;;50.00;23.90;;;;;;;5.12;87.68;99632.77;214634;1294;23079;-73
2022/10/11 21:15:18;;;;;;;51.00;24.20;;;;;;;5.09;87.47;99633.08;214819;1279;22465;-74
2022/10/11 21:20:19;;;;;;;52.70;24.60;;;;;;;5.04;87.61;99634.55;214693;1286;22651;-73
2022/10/11 21:25:21;;;;;;;53.70;25.60;;;;;;;4.99;87.67;99637.25;214781;1287;22481;-73
2022/10/11 21:30:23;;;;;;;56.30;28.40;;;;;;;4.91;87.79;99636.60;214586;1294;25420;-73
2022/10/11 21:35:29;;;;;;;66.90;31.00;;;;;;;4.85;88.27;99639.31;214896;1280;22629;-73
2022/10/11 21:40:30;;;;;;;63.10;29.10;;;;;;;4.79;87.99;99635.40;214912;1309;24456;-73
2022/10/11 21:45:36;;;;;;;64.30;29.80;;;;;;;4.75;88.28;99632.91;214853;1284;22634;-73
2022/10/11 21:50:37;;;;;;;60.70;29.30;;;;;;;4.71;88.22;99635.21;214609;1284;24143;-73
2022/10/11 21:55:39;;;;;;;54.90;27.20;;;;;;;4.68;88.59;99638.20;214815;1280;25582;-73
2022/10/11 22:00:41;;;;;;;66.70;29.00;;;;;;;4.64;88.34;99637.73;214937;1301;22470;-73
2022/10/11 22:05:46;;;;;;;53.40;25.40;;;;;;;4.59;88.40;99633.39;214787;1287;22476;-73
2022/10/11 22:10:56;;;;;;;55.40;25.50;;;;;;;4.55;88.54;99634.39;214634;1309;22476;-74
2022/10/11 22:16:02;;;;;;;51.00;24.90;;;;;;;4.51;88.65;99626.13;214696;1287;23256;-73
2022/10/11 22:21:10;;;;;;;50.10;24.70;;;;;;;4.47;88.99;99624.30;214875;1309;22489;-72
2022/10/11 22:26:19;;;;;;;59.00;26.80;;;;;;;4.43;89.14;99624.91;214722;1280;22460;-72
2022/10/11 22:31:21;;;;;;;59.00;26.80;;;;;;;4.38;89.09;99630.11;214796;1309;22560;-73
2022/10/11 22:36:23;;;;;;;66.80;28.70;;;;;;;4.35;89.19;99632.71;214752;1280;25314;-73
2022/10/11 22:41:25;;;;;;;66.50;32.40;;;;;;;4.32;89.38;99631.21;214605;1304;22487;-73
2022/10/11 22:46:27;;;;;;;60.20;31.00;;;;;;;4.28;89.33;99635.84;214663;1280;22505;-74
2022/10/11 22:51:29;;;;;;;70.60;33.20;;;;;;;4.25;89.37;99630.88;214536;1309;22518;-73
2022/10/11 22:56:31;;;;;;;91.10;41.90;;;;;;;4.21;89.43;99631.57;214745;1281;25298;-72
2022/10/11 23:01:32;;;;;;;90.70;40.30;;;;;;;4.18;89.55;99634.30;214696;1308;24219;-73
2022/10/11 23:06:34;;;;;;;95.30;42.40;;;;;;;4.16;89.77;99631.29;214793;1280;22613;-73
2022/10/11 23:11:40;;;;;;;90.50;40.00;;;;;;;4.13;89.81;99630.27;214772;1304;22468;-73
2022/10/11 23:16:45;;;;;;;88.80;41.60;;;;;;;4.10;89.92;99637.06;214576;1288;22484;-73
2022/10/11 23:21:47;;;;;;;90.40;37.40;;;;;;;4.07;90.06;99638.98;214635;1309;23209;-74
2022/10/11 23:26:49;;;;;;;79.40;34.20;;;;;;;4.02;90.08;99630.40;214926;1288;22857;-73
2022/10/11 23:31:50;;;;;;;65.80;29.80;;;;;;;3.99;90.39;99633.02;214665;1309;24271;-73
2022/10/11 23:36:52;;;;;;;66.10;32.10;;;;;;;3.98;90.51;99635.39;214586;1280;22498;-73